Time;durP1;ratioP1;P1;durP2;ratioP2;P2;SDS_P1;SDS_P2;PMS_P1;PMS_P2;Temp;Humidity;BMP_temperature;BMP_pressure;BME280_temperature;BME280_humidity;BME280_pressure;Samples;Min_cycle;Max_cycle;Signal;HPM_P1;HPM_P2
2021/03/01 00:00:34;;;;;;;16.80;9.85;;;;;;;;;;5031339;28;20017;-44
2021/03/01 00:03:00;;;;;;;18.02;9.73;;;;;;;;;;5032019;28;20116;-45
2021/03/01 00:05:26;;;;;;;17.25;8.95;;;;;;;;;;5040172;28;20280;-45
2021/03/01 00:07:52;;;;;;;19.83;10.30;;;;;;;;;;5036424;28;20116;-45
2021/03/01 00:10:19;;;;;;;21.17;10.27;;;;;;;;;;5034175;28;20544;-45
2021/03/01 00:12:45;;;;;;;18.45;9.48;;;;;;;;;;5039238;28;20410;-45
2021/03/01 00:15:13;;;;;;;21.30;9.73;;;;;;;;;;5046515;28;20045;-47
2021/03/01 00:17:39;;;;;;;21.65;10.20;;;;;;;;;;5038484;28;20024;-46
2021/03/01 00:20:07;;;;;;;16.70;9.35;;;;;;;;;;5040081;28;20029;-45
2021/03/01 00:22:33;;;;;;;19.83;9.75;;;;;;;;;;5048342;28;20036;-49
2021/03/01 00:24:59;;;;;;;21.27;8.93;;;;;;;;;;5049038;28;20033;-45
2021/03/01 00:27:25;;;;;;;22.17;9.63;;;;;;;;;;5039519;28;20049;-46
2021/03/01 00:29:51;;;;;;;20.17;9.77;;;;;;;;;;5051143;28;20123;-47
2021/03/01 00:32:17;;;;;;;17.98;9.20;;;;;;;;;;5051150;28;20390;-48
2021/03/01 00:34:43;;;;;;;18.88;10.27;;;;;;;;;;5044194;28;20079;-49
2021/03/01 00:37:09;;;;;;;17.80;9.65;;;;;;;;;;5044253;28;20049;-45
2021/03/01 00:39:35;;;;;;;18.77;9.25;;;;;;;;;;5050411;28;20063;-45
2021/03/01 00:42:01;;;;;;;19.85;9.35;;;;;;;;;;5050852;28;20025;-45
2021/03/01 00:44:27;;;;;;;19.63;9.98;;;;;;;;;;5050629;28;20031;-46
2021/03/01 00:46:53;;;;;;;18.40;9.18;;;;;;;;;;5041752;28;20035;-45
2021/03/01 00:49:19;;;;;;;19.45;9.02;;;;;;;;;;5046208;28;20140;-46
2021/03/01 00:51:45;;;;;;;18.17;9.23;;;;;;;;;;5049725;28;20526;-44
2021/03/01 00:54:11;;;;;;;18.88;10.13;;;;;;;;;;5050007;28;20025;-46
2021/03/01 00:56:37;;;;;;;21.63;10.10;;;;;;;;;;5038730;28;20017;-45
2021/03/01 00:59:03;;;;;;;21.35;9.57;;;;;;;;;;5037104;28;20025;-46
2021/03/01 01:01:29;;;;;;;17.85;9.35;;;;;;;;;;5050838;28;20025;-45
2021/03/01 01:03:55;;;;;;;17.67;9.15;;;;;;;;;;5049504;28;20392;-45
2021/03/01 01:06:21;;;;;;;19.35;9.30;;;;;;;;;;5036736;28;20029;-45
2021/03/01 01:08:47;;;;;;;21.15;9.60;;;;;;;;;;5044805;28;20079;-45
2021/03/01 01:11:13;;;;;;;18.35;9.75;;;;;;;;;;5030830;28;20013;-45
2021/03/01 01:13:39;;;;;;;21.17;10.13;;;;;;;;;;5033095;28;20625;-47
2021/03/01 01:16:05;;;;;;;22.23;10.55;;;;;;;;;;5050596;28;20109;-46
2021/03/01 01:18:31;;;;;;;21.00;10.77;;;;;;;;;;5040356;28;20619;-49
2021/03/01 01:20:57;;;;;;;18.58;10.02;;;;;;;;;;5049774;28;20112;-46
2021/03/01 01:23:23;;;;;;;22.70;11.00;;;;;;;;;;5050213;28;20014;-48
2021/03/01 01:25:49;;;;;;;21.27;10.60;;;;;;;;;;5050445;28;20033;-44
2021/03/01 01:28:15;;;;;;;24.13;12.05;;;;;;;;;;5050016;28;20056;-44
2021/03/01 01:30:41;;;;;;;19.00;9.65;;;;;;;;;;5048750;28;20026;-45
2021/03/01 01:33:07;;;;;;;25.60;11.88;;;;;;;;;;5050151;28;20036;-45
2021/03/01 01:35:33;;;;;;;20.13;10.70;;;;;;;;;;5050948;28;20064;-44
2021/03/01 01:37:59;;;;;;;22.80;10.90;;;;;;;;;;5050098;28;20052;-49
2021/03/01 01:40:25;;;;;;;24.17;11.38;;;;;;;;;;5054013;28;20457;-48
2021/03/01 01:42:52;;;;;;;24.02;11.52;;;;;;;;;;5052296;28;20079;-45
2021/03/01 01:45:22;;;;;;;27.25;11.70;;;;;;;;;;5054449;28;20053;-46
2021/03/01 01:47:49;;;;;;;21.48;10.52;;;;;;;;;;5054134;28;20049;-45
2021/03/01 01:50:16;;;;;;;23.65;11.20;;;;;;;;;;5053959;28;20021;-45
2021/03/01 01:52:42;;;;;;;21.80;10.65;;;;;;;;;;5053057;28;20024;-45
2021/03/01 01:55:09;;;;;;;19.98;9.95;;;;;;;;;;5033954;28;20101;-46
2021/03/01 01:57:36;;;;;;;27.85;11.43;;;;;;;;;;5051461;28;20021;-45
2021/03/01 02:00:08;;;;;;;27.23;11.25;;;;;;;;;;5045323;28;20022;-45
2021/03/01 02:02:34;;;;;;;24.00;11.23;;;;;;;;;;5054597;28;20346;-45
2021/03/01 02:05:03;;;;;;;24.52;11.25;;;;;;;;;;5054952;28;20048;-45
2021/03/01 02:07:32;;;;;;;26.80;11.57;;;;;;;;;;5040032;28;20033;-46
2021/03/01 02:10:14;;;;;;;22.65;11.15;;;;;;;;;;5037918;28;20033;-45
2021/03/01 02:12:52;;;;;;;25.02;11.95;;;;;;;;;;5054239;28;20035;-45
2021/03/01 02:15:36;;;;;;;22.00;11.27;;;;;;;;;;5054190;28;20029;-45
2021/03/01 02:18:02;;;;;;;24.10;11.10;;;;;;;;;;5054389;28;20100;-44
2021/03/01 02:20:28;;;;;;;24.80;11.27;;;;;;;;;;5053344;28;20141;-45
2021/03/01 02:22:54;;;;;;;22.27;11.75;;;;;;;;;;5053316;28;20396;-44
2021/03/01 02:25:24;;;;;;;21.30;10.73;;;;;;;;;;5054040;28;20082;-45
2021/03/01 02:28:06;;;;;;;26.00;11.50;;;;;;;;;;5053988;28;20055;-45
2021/03/01 02:30:37;;;;;;;27.77;12.50;;;;;;;;;;5053971;28;20040;-45
2021/03/01 02:33:06;;;;;;;23.63;12.57;;;;;;;;;;5054100;28;20029;-45
2021/03/01 02:35:33;;;;;;;22.85;11.68;;;;;;;;;;5041813;28;20024;-45
2021/03/01 02:38:01;;;;;;;20.85;11.15;;;;;;;;;;5049665;28;20487;-46
2021/03/01 02:40:28;;;;;;;24.70;11.65;;;;;;;;;;5052622;28;20104;-45
2021/03/01 02:42:54;;;;;;;24.98;11.80;;;;;;;;;;5053750;28;20061;-45
2021/03/01 02:45:21;;;;;;;29.33;12.18;;;;;;;;;;5053608;28;20032;-45
2021/03/01 02:47:47;;;;;;;29.40;12.50;;;;;;;;;;5038679;28;20128;-45
2021/03/01 02:50:15;;;;;;;19.92;11.68;;;;;;;;;;5053135;28;20483;-45
2021/03/01 02:52:41;;;;;;;26.27;11.80;;;;;;;;;;5053660;28;20040;-46
2021/03/01 02:55:08;;;;;;;24.40;11.95;;;;;;;;;;5053502;28;20021;-45
2021/03/01 02:57:34;;;;;;;26.42;12.75;;;;;;;;;;5053550;28;20031;-46
2021/03/01 03:00:01;;;;;;;24.58;12.50;;;;;;;;;;5052234;28;20029;-47
2021/03/01 03:02:28;;;;;;;24.13;12.07;;;;;;;;;;5053546;28;20128;-44
2021/03/01 03:04:54;;;;;;;23.65;12.00;;;;;;;;;;5053316;28;20656;-45
2021/03/01 03:07:22;;;;;;;25.30;11.70;;;;;;;;;;5039572;28;20027;-45
2021/03/01 03:09:48;;;;;;;23.33;12.18;;;;;;;;;;5045022;28;20035;-45
2021/03/01 03:12:15;;;;;;;23.77;12.73;;;;;;;;;;5042260;28;20040;-46
2021/03/01 03:14:41;;;;;;;27.30;12.65;;;;;;;;;;5053413;28;20104;-47
2021/03/01 03:17:08;;;;;;;24.60;11.75;;;;;;;;;;5052963;28;20104;-46
2021/03/01 03:19:34;;;;;;;24.90;11.88;;;;;;;;;;5050919;28;20116;-45
2021/03/01 03:22:00;;;;;;;23.23;12.00;;;;;;;;;;5050332;28;20032;-45
2021/03/01 03:24:26;;;;;;;23.88;12.43;;;;;;;;;;5052935;28;20056;-45
2021/03/01 03:26:53;;;;;;;25.05;11.93;;;;;;;;;;5052643;28;20045;-45
2021/03/01 03:29:19;;;;;;;23.80;11.48;;;;;;;;;;5053233;28;20037;-45
2021/03/01 03:31:45;;;;;;;27.42;12.95;;;;;;;;;;5050792;28;20116;-45
2021/03/01 03:34:11;;;;;;;22.05;11.85;;;;;;;;;;5052809;28;20644;-46
2021/03/01 03:36:39;;;;;;;25.42;11.95;;;;;;;;;;5041637;28;20109;-46
2021/03/01 03:39:08;;;;;;;23.38;12.38;;;;;;;;;;5044304;28;20017;-45
2021/03/01 03:41:35;;;;;;;26.15;12.10;;;;;;;;;;5052751;28;20507;-45
2021/03/01 03:44:02;;;;;;;24.45;12.73;;;;;;;;;;5048208;28;20445;-45
2021/03/01 03:46:29;;;;;;;24.73;11.32;;;;;;;;;;5052653;28;20424;-45
2021/03/01 03:48:56;;;;;;;25.65;12.70;;;;;;;;;;5052676;28;20651;-45
2021/03/01 03:51:22;;;;;;;22.98;11.38;;;;;;;;;;5049053;28;20025;-45
2021/03/01 03:53:50;;;;;;;21.70;11.75;;;;;;;;;;5042447;28;20133;-45
2021/03/01 03:56:17;;;;;;;23.10;11.63;;;;;;;;;;5044602;28;20025;-45
2021/03/01 03:58:46;;;;;;;23.80;11.82;;;;;;;;;;5045685;28;20024;-46
2021/03/01 04:01:15;;;;;;;22.27;11.23;;;;;;;;;;5050160;28;20452;-45
2021/03/01 04:03:42;;;;;;;22.25;10.45;;;;;;;;;;5052348;28;20021;-44
2021/03/01 04:06:10;;;;;;;25.33;12.02;;;;;;;;;;5052369;28;20043;-44
2021/03/01 04:08:37;;;;;;;25.58;11.05;;;;;;;;;;5052103;28;20025;-49
2021/03/01 04:11:03;;;;;;;26.33;12.30;;;;;;;;;;5040963;28;20048;-45
2021/03/01 04:13:30;;;;;;;25.33;11.98;;;;;;;;;;5049594;28;20029;-45
2021/03/01 04:15:57;;;;;;;25.15;11.75;;;;;;;;;;5051910;28;20025;-47
2021/03/01 04:18:27;;;;;;;24.13;12.13;;;;;;;;;;5051949;28;20472;-45
2021/03/01 04:20:55;;;;;;;26.58;11.77;;;;;;;;;;5051867;28;20551;-48
2021/03/01 04:23:22;;;;;;;26.98;11.95;;;;;;;;;;5050969;28;20032;-45
2021/03/01 04:25:48;;;;;;;24.27;12.38;;;;;;;;;;5051267;28;20036;-45
2021/03/01 04:28:15;;;;;;;23.98;11.25;;;;;;;;;;5051551;28;20064;-49
2021/03/01 04:30:42;;;;;;;21.35;11.52;;;;;;;;;;5042542;28;20029;-45
2021/03/01 04:33:08;;;;;;;30.88;12.05;;;;;;;;;;5038112;28;20120;-47
2021/03/01 04:35:35;;;;;;;23.52;11.00;;;;;;;;;;5049125;28;20103;-45
2021/03/01 04:38:01;;;;;;;21.75;11.68;;;;;;;;;;5034569;28;20416;-45
2021/03/01 04:40:27;;;;;;;26.00;12.00;;;;;;;;;;5048423;28;20034;-44
2021/03/01 04:42:53;;;;;;;21.70;11.05;;;;;;;;;;5047887;28;20037;-45
2021/03/01 04:45:20;;;;;;;22.50;11.43;;;;;;;;;;5051806;28;20430;-45
2021/03/01 04:47:48;;;;;;;22.20;11.55;;;;;;;;;;5037947;28;20120;-45
2021/03/01 04:50:15;;;;;;;22.50;11.77;;;;;;;;;;5041006;28;20648;-45
2021/03/01 04:52:42;;;;;;;26.85;12.18;;;;;;;;;;5049806;28;20447;-45
2021/03/01 04:55:09;;;;;;;24.33;11.95;;;;;;;;;;5051400;28;20028;-45
2021/03/01 04:57:36;;;;;;;27.52;12.77;;;;;;;;;;5051348;28;20075;-45
2021/03/01 05:00:04;;;;;;;23.98;11.23;;;;;;;;;;5041573;28;20430;-45
2021/03/01 05:02:30;;;;;;;28.30;12.80;;;;;;;;;;5048277;28;20404;-45
2021/03/01 05:04:57;;;;;;;25.13;12.10;;;;;;;;;;5051101;28;20033;-46
2021/03/01 05:07:24;;;;;;;24.25;12.38;;;;;;;;;;5051150;28;20075;-45
2021/03/01 05:09:51;;;;;;;22.98;12.32;;;;;;;;;;5045383;28;20029;-45
2021/03/01 05:12:17;;;;;;;27.02;12.70;;;;;;;;;;5051243;28;20028;-45
2021/03/01 05:14:43;;;;;;;24.55;12.43;;;;;;;;;;5051382;28;20108;-45
2021/03/01 05:17:09;;;;;;;26.10;12.38;;;;;;;;;;5051071;28;20057;-46
2021/03/01 05:19:35;;;;;;;27.67;13.05;;;;;;;;;;5045309;28;20507;-47
2021/03/01 05:22:01;;;;;;;25.90;12.25;;;;;;;;;;5051075;28;20368;-47
2021/03/01 05:24:27;;;;;;;23.85;11.45;;;;;;;;;;5051081;28;20025;-44
2021/03/01 05:26:53;;;;;;;26.27;12.77;;;;;;;;;;5050497;28;20140;-45
2021/03/01 05:29:20;;;;;;;21.15;11.52;;;;;;;;;;5039811;28;20032;-46
2021/03/01 05:31:46;;;;;;;26.92;13.00;;;;;;;;;;5036430;28;20044;-45
2021/03/01 05:34:12;;;;;;;27.08;12.80;;;;;;;;;;5036236;28;20400;-45
2021/03/01 05:36:38;;;;;;;23.70;12.18;;;;;;;;;;5031072;28;20021;-45
2021/03/01 05:39:04;;;;;;;24.83;11.98;;;;;;;;;;5030993;28;20037;-45
2021/03/01 05:41:31;;;;;;;27.10;12.25;;;;;;;;;;5048006;28;20052;-45
2021/03/01 05:43:58;;;;;;;20.63;11.18;;;;;;;;;;5046905;28;20032;-45
2021/03/01 05:46:24;;;;;;;24.23;11.65;;;;;;;;;;5033355;28;20482;-45
2021/03/01 05:48:50;;;;;;;26.30;13.32;;;;;;;;;;5037260;28;20118;-45
2021/03/01 05:51:16;;;;;;;26.90;12.43;;;;;;;;;;5035397;28;20124;-45
2021/03/01 05:53:43;;;;;;;26.38;12.43;;;;;;;;;;5037171;28;20032;-46
2021/03/01 05:56:10;;;;;;;21.75;12.13;;;;;;;;;;5030336;28;20067;-45
2021/03/01 05:58:36;;;;;;;21.00;11.45;;;;;;;;;;5031741;28;20025;-47
2021/03/01 06:01:03;;;;;;;23.63;11.35;;;;;;;;;;5042647;28;20036;-45
2021/03/01 06:03:30;;;;;;;22.70;10.90;;;;;;;;;;5037287;28;20587;-45
2021/03/01 06:05:56;;;;;;;27.95;12.75;;;;;;;;;;5031991;28;20037;-45
2021/03/01 06:08:23;;;;;;;23.95;11.90;;;;;;;;;;5031959;28;20055;-45
2021/03/01 06:10:49;;;;;;;26.00;11.82;;;;;;;;;;5035354;28;20030;-45
2021/03/01 06:13:16;;;;;;;23.10;11.60;;;;;;;;;;5033565;28;20036;-45
2021/03/01 06:15:43;;;;;;;23.92;12.02;;;;;;;;;;5039654;28;20026;-45
2021/03/01 06:18:10;;;;;;;29.70;13.00;;;;;;;;;;5038282;28;20037;-44
2021/03/01 06:20:36;;;;;;;26.33;12.23;;;;;;;;;;5041145;28;20026;-46
2021/03/01 06:23:03;;;;;;;24.70;11.77;;;;;;;;;;5037805;28;20029;-45
2021/03/01 06:25:29;;;;;;;23.02;11.80;;;;;;;;;;5046217;28;20333;-45
2021/03/01 06:27:55;;;;;;;23.50;12.48;;;;;;;;;;5047624;28;20128;-45
2021/03/01 06:30:29;;;;;;;26.58;12.63;;;;;;;;;;5051507;28;20204;-45
2021/03/01 06:33:05;;;;;;;25.15;13.05;;;;;;;;;;5050971;28;20145;-45
2021/03/01 06:35:36;;;;;;;25.08;12.20;;;;;;;;;;5042790;28;20367;-47
2021/03/01 06:38:21;;;;;;;27.20;13.13;;;;;;;;;;5047354;28;20037;-44
2021/03/01 06:41:06;;;;;;;25.13;12.98;;;;;;;;;;5039716;28;20030;-45
2021/03/01 06:43:32;;;;;;;27.52;12.73;;;;;;;;;;5037717;28;20158;-48
2021/03/01 06:46:14;;;;;;;27.38;12.55;;;;;;;;;;5042203;28;20021;-45
2021/03/01 06:48:40;;;;;;;26.50;12.10;;;;;;;;;;5046910;28;20037;-45
2021/03/01 06:51:07;;;;;;;28.33;13.27;;;;;;;;;;5047001;28;20106;-48
2021/03/01 06:53:33;;;;;;;23.33;13.10;;;;;;;;;;5049513;28;20037;-46
2021/03/01 06:56:05;;;;;;;26.77;13.55;;;;;;;;;;5053304;28;20029;-46
2021/03/01 06:58:37;;;;;;;24.83;13.55;;;;;;;;;;5053300;28;20101;-46
2021/03/01 07:01:13;;;;;;;29.42;13.55;;;;;;;;;;5053154;28;20017;-46
2021/03/01 07:03:39;;;;;;;26.05;12.90;;;;;;;;;;5051392;28;20039;-45
2021/03/01 07:06:06;;;;;;;29.77;13.43;;;;;;;;;;5041115;28;20028;-45
2021/03/01 07:08:37;;;;;;;30.50;13.70;;;;;;;;;;5039311;28;20044;-45
2021/03/01 07:11:04;;;;;;;31.08;12.70;;;;;;;;;;5047369;28;20067;-46
2021/03/01 07:13:31;;;;;;;26.90;12.93;;;;;;;;;;5047699;28;20065;-45
2021/03/01 07:15:58;;;;;;;28.48;12.98;;;;;;;;;;5053022;28;20029;-45
2021/03/01 07:18:25;;;;;;;28.70;12.88;;;;;;;;;;5053495;28;20021;-45
2021/03/01 07:20:52;;;;;;;24.17;11.77;;;;;;;;;;5052793;28;20024;-45
2021/03/01 07:23:18;;;;;;;27.55;12.25;;;;;;;;;;5041742;28;20051;-45
2021/03/01 07:25:44;;;;;;;27.98;13.43;;;;;;;;;;5049310;28;20112;-45
2021/03/01 07:28:13;;;;;;;28.35;13.23;;;;;;;;;;5045657;28;20042;-45
2021/03/01 07:30:39;;;;;;;24.48;12.30;;;;;;;;;;5047199;28;20032;-45
2021/03/01 07:33:06;;;;;;;28.92;13.07;;;;;;;;;;5042909;28;20045;-44
2021/03/01 07:35:32;;;;;;;23.63;12.43;;;;;;;;;;5049757;28;20104;-46
2021/03/01 07:37:58;;;;;;;26.13;12.85;;;;;;;;;;5048826;28;20116;-44
2021/03/01 07:40:24;;;;;;;23.30;11.43;;;;;;;;;;5051456;28;20112;-46
2021/03/01 07:42:50;;;;;;;27.38;12.77;;;;;;;;;;5044602;28;20116;-46
2021/03/01 07:45:18;;;;;;;24.10;12.25;;;;;;;;;;5032814;28;20553;-45
2021/03/01 07:47:44;;;;;;;25.70;12.95;;;;;;;;;;5043955;28;20036;-44
2021/03/01 07:50:10;;;;;;;25.15;12.25;;;;;;;;;;5042520;28;20120;-45
2021/03/01 07:52:37;;;;;;;27.27;13.05;;;;;;;;;;5045505;28;20496;-45
2021/03/01 07:55:05;;;;;;;29.35;13.88;;;;;;;;;;5051364;28;20100;-45
2021/03/01 07:57:32;;;;;;;26.02;13.13;;;;;;;;;;5052066;28;20477;-45
2021/03/01 07:59:59;;;;;;;26.90;12.93;;;;;;;;;;5049358;28;20382;-45
2021/03/01 08:02:25;;;;;;;23.60;12.50;;;;;;;;;;5042754;28;20028;-46
2021/03/01 08:04:52;;;;;;;22.85;12.10;;;;;;;;;;5042309;28;20032;-44
2021/03/01 08:07:36;;;;;;;22.25;11.82;;;;;;;;;;5038782;28;20078;-46
2021/03/01 08:10:02;;;;;;;25.08;12.30;;;;;;;;;;5039653;28;20071;-44
2021/03/01 08:12:38;;;;;;;23.30;12.18;;;;;;;;;;5058596;28;20554;-43
2021/03/01 08:15:05;;;;;;;23.33;12.05;;;;;;;;;;5053134;28;20025;-44
2021/03/01 08:17:34;;;;;;;23.35;12.10;;;;;;;;;;5040390;28;20373;-44
2021/03/01 08:20:15;;;;;;;21.48;11.35;;;;;;;;;;5056574;28;20481;-46
2021/03/01 08:23:00;;;;;;;21.25;11.63;;;;;;;;;;5042904;28;20021;-46
2021/03/01 08:25:38;;;;;;;26.35;12.43;;;;;;;;;;5048327;28;20025;-46
2021/03/01 08:28:04;;;;;;;27.02;12.38;;;;;;;;;;5050450;28;20128;-45
2021/03/01 08:30:34;;;;;;;24.40;11.85;;;;;;;;;;5047198;28;20124;-44
2021/03/01 08:33:09;;;;;;;23.83;11.32;;;;;;;;;;5042579;28;20039;-46
2021/03/01 08:35:36;;;;;;;23.02;11.35;;;;;;;;;;5040289;28;20045;-44
2021/03/01 08:38:02;;;;;;;21.67;11.23;;;;;;;;;;5039730;28;20064;-44
2021/03/01 08:40:28;;;;;;;27.55;11.57;;;;;;;;;;5037836;28;20698;-45
2021/03/01 08:43:00;;;;;;;25.38;11.20;;;;;;;;;;5031073;28;20029;-45
2021/03/01 08:45:28;;;;;;;21.02;10.63;;;;;;;;;;5040485;28;20034;-44
2021/03/01 08:47:55;;;;;;;19.42;10.70;;;;;;;;;;5034901;28;20041;-44
2021/03/01 08:50:22;;;;;;;22.20;11.13;;;;;;;;;;5036434;28;20029;-46
2021/03/01 08:52:49;;;;;;;20.98;11.23;;;;;;;;;;5040888;28;20036;-47
2021/03/01 08:55:16;;;;;;;22.27;10.13;;;;;;;;;;5051695;28;20082;-45
2021/03/01 08:58:01;;;;;;;21.00;10.95;;;;;;;;;;5045369;28;20112;-47
2021/03/01 09:00:28;;;;;;;16.77;9.52;;;;;;;;;;5041339;28;20453;-45
2021/03/01 09:03:13;;;;;;;24.13;10.38;;;;;;;;;;5050972;28;20032;-45
2021/03/01 09:05:40;;;;;;;25.40;11.25;;;;;;;;;;5045949;28;20562;-45
2021/03/01 09:08:07;;;;;;;21.67;10.52;;;;;;;;;;5041354;28;20033;-46
2021/03/01 09:10:51;;;;;;;19.45;10.70;;;;;;;;;;5032913;28;20499;-47
2021/03/01 09:13:18;;;;;;;20.50;10.23;;;;;;;;;;5042073;28;20068;-49
2021/03/01 09:15:44;;;;;;;19.05;9.98;;;;;;;;;;5038732;28;20034;-45
2021/03/01 09:18:10;;;;;;;24.52;10.70;;;;;;;;;;5043764;28;20116;-47
2021/03/01 09:20:40;;;;;;;23.83;10.45;;;;;;;;;;5033934;28;20029;-45
2021/03/01 09:23:07;;;;;;;21.73;10.60;;;;;;;;;;5040320;28;20029;-46
2021/03/01 09:25:34;;;;;;;22.10;10.52;;;;;;;;;;5036985;28;20366;-49
2021/03/01 09:28:00;;;;;;;19.50;10.43;;;;;;;;;;5046295;28;20053;-50
2021/03/01 09:30:26;;;;;;;19.75;9.80;;;;;;;;;;5045171;28;20025;-46
2021/03/01 09:32:56;;;;;;;23.40;10.30;;;;;;;;;;5040270;28;20033;-47
2021/03/01 09:35:23;;;;;;;18.38;10.00;;;;;;;;;;5044404;28;20021;-46
2021/03/01 09:37:49;;;;;;;18.23;10.38;;;;;;;;;;5045201;28;20029;-50
2021/03/01 09:40:19;;;;;;;19.98;10.43;;;;;;;;;;5038643;28;20129;-46
2021/03/01 09:42:56;;;;;;;20.48;10.70;;;;;;;;;;5043209;28;20025;-48
2021/03/01 09:45:22;;;;;;;18.15;10.07;;;;;;;;;;5034143;28;20033;-45
2021/03/01 09:47:50;;;;;;;15.43;8.90;;;;;;;;;;5038315;28;20039;-47
2021/03/01 09:50:16;;;;;;;18.90;9.35;;;;;;;;;;5042396;28;20037;-46
2021/03/01 09:52:45;;;;;;;20.38;10.88;;;;;;;;;;5048728;28;20029;-47
2021/03/01 09:55:11;;;;;;;15.55;8.95;;;;;;;;;;5049894;28;20053;-46
2021/03/01 09:57:37;;;;;;;17.48;10.18;;;;;;;;;;5046326;28;20035;-48
2021/03/01 10:00:22;;;;;;;18.88;9.48;;;;;;;;;;5046833;28;20606;-45
2021/03/01 10:03:14;;;;;;;17.27;9.25;;;;;;;;;;5040983;28;20046;-45
2021/03/01 10:05:46;;;;;;;16.65;8.43;;;;;;;;;;5037034;28;20124;-46
2021/03/01 10:08:18;;;;;;;15.82;8.68;;;;;;;;;;5045124;28;20051;-46
2021/03/01 10:10:44;;;;;;;23.92;13.90;;;;;;;;;;5038694;28;20033;-46
2021/03/01 10:13:10;;;;;;;24.13;10.93;;;;;;;;;;5050038;28;20061;-46
2021/03/01 10:15:48;;;;;;;19.33;9.80;;;;;;;;;;5043438;28;20025;-46
2021/03/01 10:18:15;;;;;;;21.92;8.98;;;;;;;;;;5041682;28;20064;-47
2021/03/01 10:20:48;;;;;;;17.58;9.25;;;;;;;;;;5045100;28;20041;-49
2021/03/01 10:23:25;;;;;;;16.42;7.93;;;;;;;;;;5042253;28;20048;-45
2021/03/01 10:26:01;;;;;;;16.60;8.18;;;;;;;;;;5050412;28;20037;-46
2021/03/01 10:28:27;;;;;;;17.00;9.35;;;;;;;;;;5046954;28;20037;-45
2021/03/01 10:30:59;;;;;;;16.13;8.68;;;;;;;;;;5045331;28;20375;-47
2021/03/01 10:33:25;;;;;;;19.58;9.00;;;;;;;;;;5037262;28;20036;-45
2021/03/01 10:36:06;;;;;;;23.52;12.00;;;;;;;;;;5040796;28;20021;-47
2021/03/01 10:38:48;;;;;;;19.48;10.02;;;;;;;;;;5042736;28;20537;-45
2021/03/01 10:41:15;;;;;;;18.58;9.82;;;;;;;;;;5039187;28;20021;-45
2021/03/01 10:43:58;;;;;;;21.30;11.90;;;;;;;;;;5039823;28;20017;-47
2021/03/01 10:46:27;;;;;;;24.98;13.73;;;;;;;;;;5041987;28;20037;-45
2021/03/01 10:48:53;;;;;;;29.42;13.38;;;;;;;;;;5047636;28;20025;-45
2021/03/01 10:51:19;;;;;;;22.38;13.43;;;;;;;;;;5047843;28;20021;-45
2021/03/01 10:53:45;;;;;;;23.60;13.40;;;;;;;;;;5048063;28;20053;-48
2021/03/01 10:56:11;;;;;;;26.15;14.27;;;;;;;;;;5037437;28;20060;-48
2021/03/01 10:58:37;;;;;;;23.70;13.70;;;;;;;;;;5032549;28;20722;-46
2021/03/01 11:01:03;;;;;;;20.42;12.73;;;;;;;;;;5040364;28;20028;-46
2021/03/01 11:03:29;;;;;;;25.20;13.38;;;;;;;;;;5044743;28;20037;-45
2021/03/01 11:05:55;;;;;;;22.75;12.02;;;;;;;;;;5051300;28;20087;-45
2021/03/01 11:08:22;;;;;;;24.55;13.40;;;;;;;;;;5045422;28;20120;-45
2021/03/01 11:10:48;;;;;;;21.15;11.70;;;;;;;;;;5042718;28;20033;-47
2021/03/01 11:13:14;;;;;;;21.95;12.85;;;;;;;;;;5048541;28;20036;-45
2021/03/01 11:15:40;;;;;;;22.80;11.57;;;;;;;;;;5049404;28;20044;-48
2021/03/01 11:18:06;;;;;;;23.02;11.88;;;;;;;;;;5037955;28;20026;-49
2021/03/01 11:20:32;;;;;;;19.15;10.85;;;;;;;;;;5045314;28;20021;-45
2021/03/01 11:22:58;;;;;;;22.38;11.85;;;;;;;;;;5043880;28;20083;-45
2021/03/01 11:25:24;;;;;;;20.83;11.88;;;;;;;;;;5043841;28;20046;-45
2021/03/01 11:27:50;;;;;;;20.60;10.73;;;;;;;;;;5041600;28;20068;-48
2021/03/01 11:30:16;;;;;;;20.85;11.23;;;;;;;;;;5047670;28;20507;-45
2021/03/01 11:32:42;;;;;;;18.13;10.40;;;;;;;;;;5048184;28;20039;-46
2021/03/01 11:35:08;;;;;;;21.25;11.45;;;;;;;;;;5050933;28;20013;-44
2021/03/01 11:37:34;;;;;;;21.50;10.15;;;;;;;;;;5041931;28;20037;-47
2021/03/01 11:40:00;;;;;;;16.27;8.95;;;;;;;;;;5042497;28;20102;-45
2021/03/01 11:42:26;;;;;;;18.48;9.70;;;;;;;;;;5038393;28;20028;-47
2021/03/01 11:44:52;;;;;;;16.13;8.43;;;;;;;;;;5041526;28;20091;-46
2021/03/01 11:47:18;;;;;;;12.85;7.35;;;;;;;;;;5031781;28;20033;-47
2021/03/01 11:49:44;;;;;;;12.95;7.25;;;;;;;;;;5035179;28;20096;-46
2021/03/01 11:52:10;;;;;;;14.52;7.10;;;;;;;;;;5038824;28;20088;-47
2021/03/01 11:54:36;;;;;;;12.68;7.55;;;;;;;;;;5040585;28;20521;-47
2021/03/01 11:57:02;;;;;;;13.85;7.03;;;;;;;;;;5040871;28;20021;-48
2021/03/01 11:59:28;;;;;;;14.38;6.85;;;;;;;;;;5038757;28;20028;-48
2021/03/01 12:01:54;;;;;;;13.90;6.65;;;;;;;;;;5047813;28;20655;-46
2021/03/01 12:04:20;;;;;;;11.75;6.20;;;;;;;;;;5045242;28;20377;-48
2021/03/01 12:06:47;;;;;;;12.90;5.72;;;;;;;;;;5042396;28;20123;-46
2021/03/01 12:09:13;;;;;;;11.95;6.38;;;;;;;;;;5050437;28;20119;-46
2021/03/01 12:11:39;;;;;;;11.13;6.00;;;;;;;;;;5047464;28;20051;-47
2021/03/01 12:14:05;;;;;;;12.05;5.93;;;;;;;;;;5049594;28;20044;-46
2021/03/01 12:16:31;;;;;;;10.82;5.47;;;;;;;;;;5044704;28;20079;-46
2021/03/01 12:18:57;;;;;;;11.57;5.88;;;;;;;;;;5036255;28;20036;-45
2021/03/01 12:21:23;;;;;;;12.85;5.88;;;;;;;;;;5043833;28;20667;-46
2021/03/01 12:23:49;;;;;;;9.20;5.25;;;;;;;;;;5047961;28;20045;-47
2021/03/01 12:26:15;;;;;;;9.98;5.60;;;;;;;;;;5054008;28;20056;-46
2021/03/01 12:28:41;;;;;;;10.82;5.40;;;;;;;;;;5047106;28;20046;-48
2021/03/01 12:31:07;;;;;;;12.30;5.55;;;;;;;;;;5034937;28;20037;-46
2021/03/01 12:33:33;;;;;;;9.38;5.07;;;;;;;;;;5040316;28;20030;-45
2021/03/01 12:36:00;;;;;;;9.30;4.85;;;;;;;;;;5054017;28;20025;-46
2021/03/01 12:38:26;;;;;;;12.88;5.45;;;;;;;;;;5040774;28;20104;-47
2021/03/01 12:40:52;;;;;;;10.45;4.93;;;;;;;;;;5035944;28;20052;-48
2021/03/01 12:43:18;;;;;;;7.85;4.40;;;;;;;;;;5044901;28;20466;-49
2021/03/01 12:45:44;;;;;;;9.52;5.10;;;;;;;;;;5048155;28;20032;-46
2021/03/01 12:48:11;;;;;;;10.88;4.90;;;;;;;;;;5049545;28;20457;-45
2021/03/01 12:50:36;;;;;;;10.77;5.22;;;;;;;;;;5040420;28;20083;-48
2021/03/01 12:53:02;;;;;;;8.15;5.10;;;;;;;;;;5040251;28;20037;-48
2021/03/01 12:55:28;;;;;;;7.10;4.60;;;;;;;;;;5043500;28;20028;-47
2021/03/01 12:57:54;;;;;;;8.63;4.45;;;;;;;;;;5050670;28;20862;-47
2021/03/01 13:00:21;;;;;;;8.20;4.72;;;;;;;;;;5056792;28;20033;-46
2021/03/01 13:02:47;;;;;;;6.35;4.18;;;;;;;;;;5037548;28;20131;-47
2021/03/01 13:05:13;;;;;;;8.13;4.72;;;;;;;;;;5052010;28;20081;-46
2021/03/01 13:07:39;;;;;;;11.40;4.95;;;;;;;;;;5034949;28;20056;-48
2021/03/01 13:10:06;;;;;;;8.07;4.30;;;;;;;;;;5059739;28;20477;-47
2021/03/01 13:12:32;;;;;;;8.50;4.57;;;;;;;;;;5033325;28;20026;-49
2021/03/01 13:14:58;;;;;;;8.23;4.45;;;;;;;;;;5031006;28;20029;-48
2021/03/01 13:17:24;;;;;;;7.93;4.30;;;;;;;;;;5058029;28;20040;-48
2021/03/01 13:19:50;;;;;;;11.43;4.25;;;;;;;;;;5040714;28;20045;-47
2021/03/01 13:22:16;;;;;;;7.95;4.15;;;;;;;;;;5048749;28;20033;-49
2021/03/01 13:24:42;;;;;;;7.95;4.38;;;;;;;;;;5042015;28;20022;-46
2021/03/01 13:27:08;;;;;;;7.78;4.30;;;;;;;;;;5047045;28;20136;-49
2021/03/01 13:29:34;;;;;;;9.27;4.55;;;;;;;;;;5045276;28;20021;-48
2021/03/01 13:32:00;;;;;;;9.57;4.68;;;;;;;;;;5038725;28;20140;-48
2021/03/01 13:34:26;;;;;;;7.75;4.70;;;;;;;;;;5041195;28;20116;-49
2021/03/01 13:36:52;;;;;;;10.35;4.80;;;;;;;;;;5037661;28;20369;-46
2021/03/01 13:39:18;;;;;;;7.80;4.72;;;;;;;;;;5042007;28;20026;-47
2021/03/01 13:41:44;;;;;;;8.68;4.43;;;;;;;;;;5038154;28;20036;-49
2021/03/01 13:44:10;;;;;;;9.20;4.65;;;;;;;;;;5036096;28;20048;-48
2021/03/01 13:46:36;;;;;;;6.30;3.97;;;;;;;;;;5032141;28;20032;-46
2021/03/01 13:49:02;;;;;;;11.35;4.18;;;;;;;;;;5034229;28;20022;-49
2021/03/01 13:51:28;;;;;;;8.40;4.43;;;;;;;;;;5044252;28;20032;-46
2021/03/01 13:53:54;;;;;;;10.80;4.93;;;;;;;;;;5041438;28;20051;-46
2021/03/01 13:56:20;;;;;;;9.73;5.13;;;;;;;;;;5042330;28;20029;-45
2021/03/01 13:58:46;;;;;;;6.47;4.30;;;;;;;;;;5033537;28;20060;-45
2021/03/01 14:01:12;;;;;;;6.70;4.57;;;;;;;;;;5039434;28;20035;-46
2021/03/01 14:03:38;;;;;;;8.70;4.72;;;;;;;;;;5038085;28;20022;-46
2021/03/01 14:06:04;;;;;;;9.43;4.55;;;;;;;;;;5047514;28;20060;-46
2021/03/01 14:08:30;;;;;;;9.48;4.78;;;;;;;;;;5039230;28;20044;-46
2021/03/01 14:10:56;;;;;;;7.82;3.88;;;;;;;;;;5035955;28;20103;-46
2021/03/01 14:13:22;;;;;;;7.00;4.05;;;;;;;;;;5034966;28;20457;-46
2021/03/01 14:15:48;;;;;;;8.80;3.95;;;;;;;;;;5042679;28;20044;-46
2021/03/01 14:18:14;;;;;;;8.85;4.20;;;;;;;;;;5034172;28;20079;-47
2021/03/01 14:20:40;;;;;;;7.90;4.70;;;;;;;;;;5049423;28;20032;-46
2021/03/01 14:23:06;;;;;;;8.32;4.25;;;;;;;;;;5042118;28;20025;-46
2021/03/01 14:25:32;;;;;;;7.80;3.58;;;;;;;;;;5031410;28;20497;-49